createdAt,value
2018-08-11T08:56:32.569Z,96154.00
2018-08-11T08:59:02.390Z,96149.00
2018-08-11T09:01:32.673Z,96146.00
2018-08-11T09:04:02.555Z,96156.00
2018-08-11T09:06:35.127Z,96157.00
2018-08-11T09:09:08.833Z,96153.00
2018-08-11T09:11:39.667Z,96155.00
2018-08-11T09:14:09.319Z,96156.00
2018-08-11T09:16:39.331Z,96143.00
2018-08-11T09:19:10.697Z,96148.00
2018-08-11T09:21:40.633Z,96145.00
2018-08-11T09:24:11.531Z,96150.00
2018-08-11T09:26:41.283Z,96150.00
2018-08-11T09:29:13.309Z,96151.00
2018-08-11T09:31:43.047Z,96147.00
2018-08-11T09:34:12.687Z,96150.00
2018-08-11T09:36:42.565Z,96148.00
2018-08-11T09:39:13.279Z,96157.00
2018-08-11T09:41:44.358Z,96144.00
2018-08-11T09:44:13.993Z,96151.00
2018-08-11T09:46:43.939Z,96148.00
2018-08-11T09:49:14.382Z,96161.00
2018-08-11T09:54:43.694Z,96150.00
2018-08-11T09:57:13.330Z,96148.00
2018-08-11T09:59:43.746Z,96140.00
2018-08-11T10:02:19.427Z,96136.00
2018-08-11T10:04:49.650Z,96133.00
2018-08-11T10:07:19.378Z,96132.00
2018-08-11T10:09:50.737Z,96132.00
2018-08-11T10:12:21.614Z,96135.00
2018-08-11T10:14:52.904Z,96123.00
2018-08-11T10:17:24.657Z,96126.00
2018-08-11T10:19:55.684Z,96119.00
2018-08-11T10:22:27.875Z,96122.00
2018-08-11T10:24:58.085Z,96122.00
2018-08-11T10:27:32.534Z,96121.00
2018-08-11T10:30:03.283Z,96121.00
2018-08-11T10:32:36.934Z,96121.00
2018-08-11T10:35:07.327Z,96114.00
2018-08-11T10:37:38.342Z,96124.00
2018-08-11T10:40:10.086Z,96119.00
2018-08-11T10:42:41.050Z,96108.00
2018-08-11T10:45:10.743Z,96118.00
2018-08-11T10:47:42.568Z,96107.00
2018-08-11T10:50:13.452Z,96113.00
2018-08-11T10:52:44.220Z,96112.00
2018-08-11T10:55:14.593Z,96119.00
2018-08-11T10:57:44.161Z,96128.00
2018-08-11T11:00:13.887Z,96129.00
2018-08-11T11:02:43.945Z,96121.00
2018-08-11T11:05:13.447Z,96114.00
2018-08-11T11:07:43.181Z,96117.00
2018-08-11T11:10:12.596Z,96120.00
2018-08-11T11:12:42.686Z,96111.00
2018-08-11T11:15:12.095Z,96112.00
2018-08-11T11:17:41.666Z,96108.00
2018-08-11T11:20:12.638Z,96106.00
2018-08-11T11:22:42.842Z,96102.00
2018-08-11T11:25:12.283Z,96101.00
2018-08-11T11:27:42.330Z,96101.00
2018-08-11T11:30:11.834Z,96094.00
2018-08-11T11:32:41.466Z,96098.00
2018-08-11T11:35:11.520Z,96095.00
2018-08-11T11:37:41.238Z,96099.00
2018-08-11T11:40:10.737Z,96090.00
2018-08-11T11:42:40.152Z,96088.00
2018-08-11T11:45:09.656Z,96099.00
2018-08-11T11:47:39.616Z,96084.00
2018-08-11T11:50:09.133Z,96093.00
2018-08-11T11:52:38.702Z,96090.00
2018-08-11T11:55:08.296Z,96090.00
2018-08-11T11:57:37.840Z,96089.00
2018-08-11T12:00:07.385Z,96082.00
2018-08-11T12:02:38.101Z,96089.00
2018-08-11T12:05:07.625Z,96083.00
2018-08-11T12:07:37.076Z,96078.00
2018-08-11T12:10:06.597Z,96084.00
2018-08-11T12:12:36.112Z,96084.00
2018-08-11T12:15:06.329Z,96079.00
2018-08-11T12:17:35.723Z,96073.00
2018-08-11T12:20:05.556Z,96078.00
2018-08-11T12:22:35.003Z,96081.00
2018-08-11T12:25:04.637Z,96070.00
2018-08-11T12:27:34.120Z,96074.00
2018-08-11T12:30:03.699Z,96072.00
2018-08-11T12:32:33.127Z,96079.00
2018-08-11T12:35:02.577Z,96070.00
2018-08-11T12:37:32.151Z,96061.00
2018-08-11T12:40:02.907Z,96051.00
2018-08-11T12:42:32.382Z,96053.00
2018-08-11T12:45:02.843Z,96059.00
2018-08-11T12:47:33.467Z,96062.00
2018-08-11T12:50:03.494Z,96059.00
2018-08-11T12:52:33.144Z,96061.00
2018-08-11T12:55:02.675Z,96059.00
2018-08-11T12:57:32.670Z,96049.00
2018-08-11T13:00:02.251Z,96051.00
2018-08-11T13:02:31.902Z,96046.00
2018-08-11T13:05:01.965Z,96038.00
2018-08-11T13:07:31.409Z,96030.00
2018-08-11T13:10:00.833Z,96032.00
2018-08-11T13:12:30.863Z,96029.00
2018-08-11T13:15:00.838Z,96029.00
2018-08-11T13:17:31.213Z,96024.00
2018-08-11T13:20:00.609Z,96024.00
2018-08-11T13:22:31.473Z,96017.00
2018-08-11T13:25:00.941Z,96022.00
2018-08-11T13:27:31.845Z,96026.00
2018-08-11T13:30:02.055Z,96007.00
2018-08-11T13:32:34.053Z,96012.00
2018-08-11T13:35:04.731Z,96013.00
2018-08-11T13:37:34.591Z,96025.00
2018-08-11T13:40:05.068Z,96017.00
2018-08-11T13:42:34.535Z,96013.00
2018-08-11T13:45:04.161Z,96005.00
2018-08-11T13:47:35.945Z,96000.00
2018-08-11T13:50:08.605Z,95996.00
2018-08-11T13:52:38.837Z,96003.00
2018-08-11T13:55:08.922Z,95997.00
2018-08-11T13:57:38.555Z,96005.00
2018-08-11T14:00:10.067Z,96002.00
2018-08-11T14:02:41.688Z,96002.00
2018-08-11T14:05:12.138Z,95998.00
2018-08-11T14:07:52.920Z,95990.00
2018-08-11T14:10:24.070Z,95985.00
2018-08-11T14:12:54.186Z,95981.00
2018-08-11T14:15:23.637Z,95985.00
2018-08-11T14:17:55.552Z,95987.00
2018-08-11T14:20:24.968Z,95989.00
2018-08-11T14:22:54.410Z,95979.00
2018-08-11T14:25:23.958Z,95981.00
2018-08-11T14:27:53.463Z,95989.00
2018-08-11T14:30:23.338Z,95985.00
2018-08-11T14:32:52.795Z,95976.00
2018-08-11T14:35:24.409Z,95977.00
2018-08-11T14:37:55.357Z,95963.00
2018-08-11T14:40:25.376Z,95967.00
2018-08-11T14:43:01.523Z,95959.00
2018-08-11T14:45:32.147Z,95965.00
2018-08-11T14:48:01.646Z,95964.00
2018-08-11T14:50:31.140Z,95961.00
2018-08-11T14:53:01.436Z,95953.00
2018-08-11T14:55:30.925Z,95958.00
2018-08-11T14:58:00.589Z,95972.00
2018-08-11T15:00:30.074Z,95963.00
2018-08-11T15:03:00.116Z,95952.00
2018-08-11T15:05:30.143Z,95957.00
2018-08-11T15:07:59.693Z,95955.00
2018-08-11T15:10:30.774Z,95959.00
2018-08-11T15:13:00.409Z,95958.00
2018-08-11T15:15:29.959Z,95961.00
2018-08-11T15:17:59.571Z,95957.00
2018-08-11T15:20:29.232Z,95962.00
2018-08-11T15:22:58.577Z,95957.00
2018-08-11T15:25:28.088Z,95963.00
2018-08-11T15:27:57.646Z,95966.00
2018-08-11T15:30:29.160Z,95953.00
2018-08-11T15:32:59.442Z,95957.00
2018-08-11T15:35:28.938Z,95961.00
2018-08-11T15:37:58.359Z,95949.00
2018-08-11T15:40:28.342Z,95954.00
2018-08-11T15:42:58.445Z,95947.00
2018-08-11T15:45:28.692Z,95957.00
2018-08-11T15:47:58.786Z,95946.00
2018-08-11T15:50:28.268Z,95947.00
2018-08-11T15:52:57.676Z,95942.00
2018-08-11T15:55:27.789Z,95937.00
2018-08-11T15:57:57.093Z,95941.00
2018-08-11T16:00:26.629Z,95939.00
2018-08-11T16:02:57.310Z,95941.00
2018-08-11T16:05:26.679Z,95943.00
2018-08-11T16:07:56.199Z,95947.00
2018-08-11T16:10:26.432Z,95952.00
2018-08-11T16:12:56.242Z,95947.00
2018-08-11T16:15:26.450Z,95950.00
2018-08-11T16:17:56.149Z,95950.00
2018-08-11T16:20:25.580Z,95951.00
2018-08-11T16:22:55.423Z,95957.00
2018-08-11T16:25:25.012Z,95948.00
2018-08-11T16:27:56.101Z,95952.00
2018-08-11T16:30:27.613Z,95956.00
2018-08-11T16:32:57.168Z,95949.00
2018-08-11T16:35:26.570Z,95939.00
2018-08-11T16:37:55.950Z,95949.00
2018-08-11T16:40:26.146Z,95943.00
2018-08-11T16:42:55.541Z,95951.00
2018-08-11T16:45:25.042Z,95949.00
2018-08-11T16:47:54.476Z,95949.00
2018-08-11T16:50:23.814Z,95953.00
2018-08-11T16:52:53.318Z,95951.00
2018-08-11T16:55:22.744Z,95955.00
2018-08-11T16:57:52.378Z,95954.00
2018-08-11T17:00:21.850Z,95957.00
2018-08-11T17:02:51.146Z,95961.00
2018-08-11T17:05:20.626Z,95961.00
2018-08-11T17:07:50.172Z,95962.00
2018-08-11T17:10:21.356Z,95953.00
2018-08-11T17:12:51.410Z,95956.00
2018-08-11T17:15:21.087Z,95952.00
2018-08-11T17:17:50.664Z,95958.00
2018-08-11T17:20:23.568Z,95963.00
2018-08-11T17:22:52.963Z,95964.00
2018-08-11T17:25:24.746Z,95958.00
2018-08-11T17:27:54.206Z,95949.00
2018-08-11T17:30:23.577Z,95953.00
2018-08-11T17:32:53.318Z,95952.00
2018-08-11T17:35:22.729Z,95952.00
2018-08-11T17:37:52.125Z,95962.00
2018-08-11T17:40:26.253Z,95957.00
2018-08-11T17:42:56.940Z,95953.00
2018-08-11T17:45:27.045Z,95955.00
2018-08-11T17:47:56.621Z,95956.00
2018-08-11T17:50:28.225Z,95958.00
2018-08-11T17:52:57.787Z,95964.00
2018-08-11T17:55:27.878Z,95953.00
2018-08-11T17:57:58.139Z,95957.00
2018-08-11T18:00:28.589Z,95956.00
2018-08-11T18:02:58.206Z,95959.00
2018-08-11T18:05:31.230Z,95961.00
2018-08-11T18:08:00.855Z,95963.00
2018-08-11T18:10:30.522Z,95955.00
2018-08-11T18:13:00.169Z,95956.00
2018-08-11T18:15:31.011Z,95961.00
2018-08-11T18:18:01.470Z,95967.00
2018-08-11T18:20:31.129Z,95962.00
2018-08-11T18:23:00.979Z,95965.00
2018-08-11T18:25:30.506Z,95960.00
2018-08-11T18:28:01.110Z,95963.00
2018-08-11T18:30:30.640Z,95963.00
2018-08-11T18:33:02.865Z,95962.00
2018-08-11T18:35:32.292Z,95965.00
2018-08-11T18:38:04.112Z,95961.00
2018-08-11T18:40:33.643Z,95977.00
2018-08-11T18:43:04.250Z,95978.00
2018-08-11T18:45:36.732Z,95974.00
2018-08-11T18:48:06.589Z,95976.00
2018-08-11T18:50:36.425Z,95982.00
2018-08-11T18:53:06.131Z,95987.00
2018-08-11T18:55:35.845Z,95990.00
2018-08-11T18:58:05.667Z,95991.00
2018-08-11T19:00:37.117Z,95999.00
2018-08-11T19:03:08.075Z,95994.00
2018-08-11T19:05:37.703Z,96000.00
2018-08-11T19:08:11.829Z,95988.00
2018-08-11T19:10:41.223Z,95992.00
2018-08-11T19:13:11.536Z,95997.00
2018-08-11T19:15:41.053Z,95999.00
2018-08-11T19:18:11.507Z,96008.00
2018-08-11T19:20:41.008Z,96003.00
2018-08-11T19:23:11.047Z,96009.00
2018-08-11T19:25:40.842Z,96005.00
2018-08-11T19:28:11.117Z,96010.00
2018-08-11T19:30:40.570Z,96011.00
2018-08-11T19:33:10.199Z,96011.00
2018-08-11T19:35:39.926Z,96009.00
2018-08-11T19:38:09.809Z,96010.00
2018-08-11T19:40:40.807Z,96010.00
2018-08-11T19:43:12.534Z,96006.00
2018-08-11T19:45:42.836Z,96005.00
2018-08-11T19:48:12.724Z,96005.00
2018-08-11T19:50:42.260Z,96011.00
2018-08-11T19:53:11.830Z,96006.00
2018-08-11T19:55:41.338Z,96012.00
2018-08-11T19:58:10.878Z,96011.00
2018-08-11T20:00:40.916Z,96012.00
2018-08-11T20:03:12.244Z,96013.00
2018-08-11T20:05:42.184Z,96005.00
2018-08-11T20:10:52.981Z,96011.00
2018-08-11T20:13:23.632Z,96003.00
2018-08-11T20:15:54.827Z,96010.00
2018-08-11T20:18:24.989Z,96011.00
2018-08-11T20:20:54.986Z,96012.00
2018-08-11T20:23:25.940Z,95996.00
2018-08-11T20:28:53.248Z,96017.00
2018-08-11T20:31:23.026Z,96008.00
2018-08-11T20:33:52.597Z,96010.00
2018-08-11T20:36:22.224Z,96011.00
2018-08-11T20:38:51.922Z,96009.00
2018-08-11T20:41:21.827Z,96005.00
2018-08-11T20:43:51.614Z,96008.00
2018-08-11T20:46:23.500Z,96003.00
2018-08-11T20:48:53.736Z,96012.00
2018-08-11T20:51:23.799Z,96012.00
2018-08-11T20:53:53.963Z,96009.00
2018-08-11T20:56:23.762Z,96001.00
2018-08-11T20:58:53.598Z,96016.00
2018-08-11T21:01:24.566Z,96006.00
2018-08-11T21:03:54.615Z,96010.00
2018-08-11T21:06:25.258Z,96015.00
2018-08-11T21:08:54.885Z,96016.00
2018-08-11T21:11:24.655Z,96014.00
2018-08-11T21:13:54.664Z,96009.00
2018-08-11T21:16:25.296Z,96008.00
2018-08-11T21:18:55.336Z,96017.00
2018-08-11T21:21:25.062Z,96018.00
2018-08-11T21:23:56.056Z,96016.00
2018-08-11T21:26:26.026Z,96018.00
2018-08-11T21:28:55.674Z,96016.00
2018-08-11T21:31:25.460Z,96002.00
2018-08-11T21:33:55.333Z,96008.00
2018-08-11T21:36:25.183Z,96005.00
2018-08-11T21:38:55.242Z,96006.00
2018-08-11T21:41:24.961Z,96000.00
2018-08-11T21:43:55.905Z,96006.00
2018-08-11T21:46:25.461Z,96008.00
2018-08-11T21:48:55.009Z,96003.00
2018-08-11T21:51:24.753Z,96002.00
2018-08-11T21:53:54.651Z,96000.00
2018-08-11T21:56:24.922Z,96002.00
2018-08-11T21:58:54.757Z,95998.00
2018-08-11T22:01:24.485Z,95999.00
2018-08-11T22:03:55.441Z,95999.00
2018-08-11T22:06:25.815Z,95997.00
2018-08-11T22:08:55.862Z,95988.00
2018-08-11T22:11:25.502Z,95976.00
2018-08-11T22:13:55.271Z,95979.00
2018-08-11T22:16:25.497Z,95988.00
2018-08-11T22:18:55.436Z,95986.00
2018-08-11T22:21:25.162Z,95985.00
2018-08-11T22:23:55.149Z,95987.00
2018-08-11T22:26:25.446Z,95981.00
2018-08-11T22:28:55.611Z,95979.00
2018-08-11T22:31:25.274Z,95978.00
2018-08-11T22:33:55.040Z,95989.00
2018-08-11T22:36:24.868Z,95980.00
2018-08-11T22:38:54.330Z,95979.00
2018-08-11T22:41:23.941Z,95971.00
2018-08-11T22:43:55.237Z,95977.00
2018-08-11T22:46:24.884Z,95967.00
2018-08-11T22:48:54.432Z,95978.00
2018-08-11T22:51:24.043Z,95970.00
2018-08-11T22:53:54.329Z,95975.00
2018-08-11T22:56:24.083Z,95974.00
2018-08-11T22:58:54.644Z,95977.00
2018-08-11T23:01:24.901Z,95975.00
2018-08-11T23:03:54.787Z,95958.00
2018-08-11T23:06:24.445Z,95965.00
2018-08-11T23:08:54.389Z,95973.00
2018-08-11T23:11:23.979Z,95961.00
2018-08-11T23:13:53.550Z,95963.00
2018-08-11T23:16:23.668Z,95958.00
2018-08-11T23:19:04.832Z,95958.00
2018-08-11T23:21:34.715Z,95956.00
2018-08-11T23:24:04.192Z,95946.00
2018-08-11T23:26:33.933Z,95951.00
2018-08-11T23:29:03.694Z,95945.00
2018-08-11T23:31:33.319Z,95947.00
2018-08-11T23:34:03.549Z,95941.00
2018-08-11T23:36:33.079Z,95938.00
2018-08-11T23:39:02.912Z,95941.00
2018-08-11T23:41:32.470Z,95936.00
2018-08-11T23:44:02.068Z,95928.00
2018-08-11T23:46:32.044Z,95933.00
2018-08-11T23:49:01.750Z,95924.00
2018-08-11T23:51:31.298Z,95924.00
2018-08-11T23:54:01.159Z,95934.00
2018-08-11T23:56:30.682Z,95933.00
2018-08-11T23:59:00.514Z,95924.00
